createdAt,value
2018-11-13T06:41:10.630Z,16.52
2018-11-13T06:41:42.731Z,16.42
2018-11-13T06:42:14.818Z,16.45
2018-11-13T06:44:07.205Z,16.42
2018-11-13T06:44:39.305Z,16.4
2018-11-13T06:45:11.374Z,16.49
2018-11-13T06:45:43.471Z,16.51
2018-11-13T06:47:35.244Z,16.48
2018-11-13T06:48:07.511Z,16.47
2018-11-13T06:48:39.658Z,16.44
2018-11-13T06:49:11.866Z,16.45
2018-11-13T06:51:03.601Z,16.39
2018-11-13T06:51:35.698Z,16.44
2018-11-13T06:52:07.790Z,16.47
2018-11-13T06:52:39.890Z,16.52
2018-11-13T06:53:11.938Z,16.45
2018-11-13T06:53:44.087Z,16.49
2018-11-13T06:54:16.128Z,16.44
2018-11-13T06:56:08.824Z,16.51
2018-11-13T06:56:40.984Z,16.48
2018-11-13T06:57:13.040Z,16.48
2018-11-13T06:57:45.131Z,16.48
2018-11-13T06:58:17.200Z,16.47
2018-11-13T06:58:49.257Z,16.52
2018-11-13T06:59:21.302Z,16.48
2018-11-13T06:59:53.367Z,16.51
2018-11-13T07:00:25.451Z,16.49
2018-11-13T07:00:57.563Z,16.49
2018-11-13T07:01:29.666Z,16.45
2018-11-13T07:02:01.920Z,16.45
2018-11-13T07:02:34.019Z,16.44
2018-11-13T07:03:06.136Z,16.49
2018-11-13T07:03:38.224Z,16.51
2018-11-13T07:04:10.344Z,16.45
2018-11-13T07:04:42.492Z,16.48
2018-11-13T07:05:14.701Z,16.58
2018-11-13T07:05:46.651Z,16.48
2018-11-13T07:06:18.724Z,16.45
2018-11-13T07:06:50.926Z,16.55
2018-11-13T07:07:23.117Z,16.57
2018-11-13T07:07:55.210Z,16.49
2018-11-13T07:08:27.252Z,16.59
2018-11-13T07:08:59.290Z,16.51
2018-11-13T07:09:31.373Z,16.52
2018-11-13T07:10:03.582Z,16.57
2018-11-13T07:11:54.962Z,16.52
2018-11-13T07:12:27.049Z,16.54
2018-11-13T07:12:59.137Z,16.54
2018-11-13T07:14:50.536Z,16.54
2018-11-13T07:15:22.652Z,16.52
2018-11-13T07:15:54.464Z,16.57
2018-11-13T07:16:26.541Z,16.49
2018-11-13T07:16:58.608Z,16.57
2018-11-13T07:17:30.654Z,16.59
2018-11-13T07:18:02.757Z,16.52
2018-11-13T07:18:35.007Z,16.48
2018-11-13T07:19:06.959Z,16.65
2018-11-13T07:19:39.060Z,16.48
2018-11-13T07:20:11.145Z,16.51
2018-11-13T07:20:43.289Z,16.65
2018-11-13T07:21:15.378Z,16.59
2018-11-13T07:21:47.457Z,16.51
2018-11-13T07:22:19.545Z,16.51
2018-11-13T07:22:51.640Z,16.58
2018-11-13T07:23:23.697Z,16.67
2018-11-13T07:23:55.791Z,16.59
2018-11-13T07:24:27.898Z,16.67
2018-11-13T07:24:59.990Z,16.59
2018-11-13T07:25:32.158Z,16.52
2018-11-13T07:26:04.282Z,16.48
2018-11-13T07:26:36.379Z,16.48
2018-11-13T07:27:08.463Z,16.59
2018-11-13T07:27:40.769Z,16.58
2018-11-13T07:29:31.958Z,16.63
2018-11-13T07:30:04.047Z,16.65
2018-11-13T07:30:36.098Z,16.58
2018-11-13T07:31:08.239Z,16.58
2018-11-13T07:31:40.308Z,16.63
2018-11-13T07:32:12.386Z,16.58
2018-11-13T07:32:44.479Z,16.62
2018-11-13T07:33:16.556Z,16.62
2018-11-13T07:33:48.631Z,16.57
2018-11-13T07:34:20.718Z,16.55
2018-11-13T07:34:52.806Z,16.59
2018-11-13T07:35:24.850Z,16.59
2018-11-13T07:35:56.916Z,16.51
2018-11-13T07:36:29.033Z,16.66
2018-11-13T07:37:01.150Z,16.65
2018-11-13T07:37:33.257Z,16.52
2018-11-13T07:38:05.343Z,16.59
2018-11-13T07:38:37.413Z,16.63
2018-11-13T07:39:09.509Z,16.55
2018-11-13T07:39:41.599Z,16.66
2018-11-13T07:42:52.968Z,16.62
2018-11-13T07:43:25.049Z,16.59
2018-11-13T07:43:57.146Z,16.55
2018-11-13T07:44:29.256Z,16.63
2018-11-13T07:45:01.341Z,16.65
2018-11-13T07:45:34.508Z,16.67
2018-11-13T07:46:06.588Z,16.63
2018-11-13T07:46:38.776Z,16.7
2018-11-13T07:48:30.479Z,16.66
2018-11-13T07:49:02.580Z,16.66
2018-11-13T07:49:34.664Z,16.67
2018-11-13T07:51:26.297Z,16.7
2018-11-13T07:51:58.132Z,16.72
2018-11-13T07:52:30.188Z,16.65
2018-11-13T07:53:02.245Z,16.67
2018-11-13T07:53:34.332Z,16.7
2018-11-13T07:54:06.498Z,16.7
2018-11-13T07:54:38.521Z,16.66
2018-11-13T07:55:10.607Z,16.66
2018-11-13T07:55:42.689Z,16.73
2018-11-13T07:56:14.771Z,16.66
2018-11-13T07:56:46.865Z,16.7
2018-11-13T07:57:18.978Z,16.77
2018-11-13T07:57:51.072Z,16.7
2018-11-13T07:58:23.190Z,16.7
2018-11-13T07:58:55.261Z,16.77
2018-11-13T08:02:06.136Z,16.77
2018-11-13T08:02:38.242Z,16.73
2018-11-13T08:03:10.314Z,16.76
2018-11-13T08:03:42.472Z,16.76
2018-11-13T08:04:14.531Z,16.73
2018-11-13T08:04:46.627Z,16.72
2018-11-13T08:05:18.673Z,16.85
2018-11-13T08:05:50.735Z,16.81
2018-11-13T08:06:22.856Z,16.8
2018-11-13T08:08:14.451Z,16.77
2018-11-13T08:08:46.540Z,16.87
2018-11-13T08:09:18.676Z,16.82
2018-11-13T08:11:10.382Z,16.85
2018-11-13T08:11:42.469Z,16.88
2018-11-13T08:12:14.554Z,16.9
2018-11-13T08:12:46.700Z,16.9
2018-11-13T08:13:18.917Z,16.84
2018-11-13T08:13:50.811Z,16.91
2018-11-13T08:14:22.873Z,16.82
2018-11-13T08:14:54.963Z,16.9
2018-11-13T08:15:27.055Z,16.95
2018-11-13T08:17:18.638Z,16.92
2018-11-13T08:17:50.727Z,16.95
2018-11-13T08:18:22.904Z,17
2018-11-13T08:18:55.051Z,16.99
2018-11-13T08:20:46.403Z,17
2018-11-13T08:21:18.489Z,16.97
2018-11-13T08:21:50.635Z,17.03
2018-11-13T08:22:22.687Z,17.02
2018-11-13T08:22:54.800Z,16.97
2018-11-13T08:23:26.898Z,17
2018-11-13T08:23:58.998Z,17
2018-11-13T08:24:31.095Z,16.97
2018-11-13T08:25:03.254Z,17.06
2018-11-13T08:25:35.463Z,17.09
2018-11-13T08:26:07.575Z,17.06
2018-11-13T08:26:39.692Z,17.03
2018-11-13T08:27:11.782Z,17.06
2018-11-13T08:29:03.621Z,17.07
2018-11-13T08:29:35.624Z,17.13
2018-11-13T08:30:07.908Z,17.06
2018-11-13T08:30:40.008Z,17
2018-11-13T08:31:12.115Z,17.02
2018-11-13T08:31:44.198Z,17.02
2018-11-13T08:32:16.323Z,16.99
2018-11-13T08:32:48.432Z,16.97
2018-11-13T08:33:20.492Z,17.09
2018-11-13T08:33:52.593Z,17
2018-11-13T08:34:24.697Z,17.07
2018-11-13T08:34:56.876Z,17.03
2018-11-13T08:36:48.314Z,17.12
2018-11-13T08:37:20.399Z,17.17
2018-11-13T08:37:52.450Z,17.1
2018-11-13T08:39:44.066Z,17.12
2018-11-13T08:40:16.165Z,17.1
2018-11-13T08:40:48.257Z,17.1
2018-11-13T08:41:20.323Z,17.09
2018-11-13T08:41:52.416Z,17.07
2018-11-13T08:42:24.515Z,17.13
2018-11-13T08:42:56.626Z,17.15
2018-11-13T08:43:28.728Z,17.13
2018-11-13T08:44:00.879Z,17.09
2018-11-13T08:44:32.952Z,17.07
2018-11-13T08:45:05.065Z,17.15
2018-11-13T08:45:37.171Z,17.18
2018-11-13T08:46:09.353Z,17.2
2018-11-13T08:49:20.496Z,17.2
2018-11-13T08:51:11.791Z,17.18
2018-11-13T08:51:44.173Z,17.21
2018-11-13T08:52:16.228Z,17.17
2018-11-13T08:52:48.338Z,17.15
2018-11-13T08:53:20.453Z,17.25
2018-11-13T08:53:52.529Z,17.18
2018-11-13T08:54:24.636Z,17.21
2018-11-13T08:54:56.709Z,17.28
2018-11-13T08:55:28.771Z,17.22
2018-11-13T08:56:00.840Z,17.2
2018-11-13T08:56:32.945Z,17.2
2018-11-13T08:57:05.188Z,17.2
2018-11-13T08:57:37.258Z,17.24
2018-11-13T08:59:28.890Z,17.24
2018-11-13T09:00:00.936Z,17.2
2018-11-13T09:00:33.051Z,17.25
2018-11-13T09:02:24.488Z,17.32
2018-11-13T09:02:56.519Z,17.24
2018-11-13T09:03:28.776Z,17.2
2018-11-13T09:04:01.103Z,17.27
2018-11-13T09:04:33.420Z,17.22
2018-11-13T09:06:25.462Z,17.3
2018-11-13T09:06:57.603Z,17.28
2018-11-13T09:08:49.328Z,17.32
2018-11-13T09:09:21.414Z,17.36
2018-11-13T09:09:53.478Z,17.28
2018-11-13T09:11:44.981Z,17.3
2018-11-13T09:12:17.191Z,17.39
2018-11-13T09:12:49.217Z,17.3
2018-11-13T09:14:40.907Z,17.31
2018-11-13T09:15:13.018Z,17.42
2018-11-13T09:15:45.051Z,17.43
2018-11-13T09:16:17.889Z,17.39
2018-11-13T09:16:49.890Z,17.38
2018-11-13T09:17:21.957Z,17.42
2018-11-13T09:17:54.067Z,17.38
2018-11-13T09:19:45.745Z,17.4
2018-11-13T09:20:17.770Z,17.42
2018-11-13T09:20:49.822Z,17.45
2018-11-13T09:21:21.889Z,17.45
2018-11-13T09:21:53.962Z,17.47
2018-11-13T09:22:26.027Z,17.47
2018-11-13T09:22:58.082Z,17.35
2018-11-13T09:23:30.118Z,17.46
2018-11-13T09:24:02.234Z,17.46
2018-11-13T09:24:34.324Z,17.47
2018-11-13T09:25:06.367Z,17.4
2018-11-13T09:25:38.495Z,17.46
2018-11-13T09:26:10.583Z,17.4
2018-11-13T09:26:42.696Z,17.45
2018-11-13T09:27:14.810Z,17.47
2018-11-13T09:27:46.910Z,17.57
2018-11-13T09:28:18.972Z,17.58
2018-11-13T09:28:51.058Z,17.55
2018-11-13T09:29:23.094Z,17.45
2018-11-13T09:31:14.875Z,17.62
2018-11-13T09:31:47.103Z,17.58
2018-11-13T09:32:19.309Z,17.62
2018-11-13T09:32:51.572Z,17.54
2018-11-13T09:33:23.620Z,17.57
2018-11-13T09:33:55.718Z,17.5
2018-11-13T09:34:27.801Z,17.6
2018-11-13T09:34:59.960Z,17.58
2018-11-13T09:36:51.518Z,17.52
2018-11-13T09:37:23.615Z,17.6
2018-11-13T09:37:55.714Z,17.62
2018-11-13T09:39:47.178Z,17.58
2018-11-13T09:40:19.227Z,17.63
2018-11-13T09:40:51.325Z,17.55
2018-11-13T09:42:42.919Z,17.62
2018-11-13T09:43:14.978Z,17.57
2018-11-13T09:43:47.064Z,17.6
2018-11-13T09:44:19.148Z,17.52
2018-11-13T09:44:51.265Z,17.58
2018-11-13T09:45:23.334Z,17.6
2018-11-13T09:45:55.483Z,17.42
2018-11-13T09:47:47.194Z,17.63
2018-11-13T09:48:19.210Z,17.6
2018-11-13T09:48:51.319Z,17.63
2018-11-13T09:49:23.386Z,17.54
2018-11-13T09:49:55.485Z,17.54
2018-11-13T09:50:27.569Z,17.58
2018-11-13T09:50:59.671Z,17.5
2018-11-13T09:51:31.733Z,17.55
2018-11-13T09:52:03.834Z,17.57
2018-11-13T09:52:35.916Z,17.52
2018-11-13T09:53:07.998Z,17.54
2018-11-13T09:53:40.116Z,17.52
2018-11-13T09:54:12.182Z,17.54
2018-11-13T09:54:44.287Z,17.47
2018-11-13T09:55:16.346Z,17.58
2018-11-13T09:55:48.169Z,17.46
2018-11-13T09:56:20.324Z,17.58
2018-11-13T09:56:52.381Z,17.45
2018-11-13T09:57:24.468Z,17.4
2018-11-13T09:59:16.031Z,17.4
2018-11-13T09:59:48.192Z,17.4
2018-11-13T10:00:20.425Z,17.46
2018-11-13T10:00:52.598Z,17.47
2018-11-13T10:01:24.631Z,17.45
2018-11-13T10:01:57.478Z,17.43
2018-11-13T10:03:50.804Z,17.43
2018-11-13T10:04:22.609Z,17.46
2018-11-13T10:04:54.893Z,17.46
2018-11-13T10:05:26.316Z,17.43
2018-11-13T10:05:58.407Z,17.43
2018-11-13T10:06:30.424Z,17.45
2018-11-13T10:07:02.520Z,17.46
2018-11-13T10:07:34.599Z,17.4
2018-11-13T10:09:26.327Z,17.46
2018-11-13T10:09:58.435Z,17.43
2018-11-13T10:10:30.599Z,17.46
2018-11-13T10:11:02.628Z,17.52
2018-11-13T10:11:34.704Z,17.47
2018-11-13T10:12:06.798Z,17.42
2018-11-13T10:12:38.859Z,17.4
2018-11-13T10:13:10.932Z,17.45
2018-11-13T10:13:43.011Z,17.4
2018-11-13T10:14:15.083Z,17.43
2018-11-13T10:14:47.173Z,17.32
2018-11-13T10:15:19.292Z,17.4
2018-11-13T10:15:51.405Z,17.55
2018-11-13T10:16:23.488Z,17.5
2018-11-13T10:16:55.561Z,17.46
2018-11-13T10:18:47.191Z,17.49
2018-11-13T10:19:19.267Z,17.43
2018-11-13T10:19:51.356Z,17.52
2018-11-13T10:20:23.433Z,17.5
2018-11-13T10:20:55.526Z,17.43
2018-11-13T10:21:27.647Z,17.47
2018-11-13T10:21:59.743Z,17.42
2018-11-13T10:22:31.842Z,17.45
2018-11-13T10:23:03.928Z,17.45
2018-11-13T10:23:36.030Z,17.58
2018-11-13T10:24:08.135Z,17.57
2018-11-13T10:24:40.011Z,17.58
2018-11-13T10:25:12.133Z,17.6
2018-11-13T10:25:44.250Z,17.58
2018-11-13T10:26:16.401Z,17.57
2018-11-13T10:26:48.428Z,17.6
2018-11-13T10:27:20.521Z,17.71
2018-11-13T10:29:11.916Z,17.76
2018-11-13T10:29:44.011Z,17.74
2018-11-13T10:31:35.529Z,17.94
2018-11-13T10:32:07.621Z,17.94
2018-11-13T10:32:39.737Z,17.94
2018-11-13T10:33:11.849Z,18.01
2018-11-13T10:33:43.925Z,18.02
2018-11-13T10:34:16.047Z,18.08
2018-11-13T10:34:48.127Z,18.03
2018-11-13T10:35:20.235Z,18.03
2018-11-13T10:35:52.295Z,18.2
2018-11-13T10:36:24.417Z,18.24
2018-11-13T10:36:56.524Z,18.17
2018-11-13T10:37:28.597Z,18.29
2018-11-13T10:38:00.700Z,18.29
2018-11-13T10:38:32.792Z,18.36
2018-11-13T10:40:24.406Z,18.38
2018-11-13T10:40:56.368Z,18.35
2018-11-13T10:41:28.404Z,18.47
2018-11-13T10:42:00.452Z,18.5
2018-11-13T10:42:32.568Z,18.49
2018-11-13T10:43:04.631Z,18.51
2018-11-13T10:43:36.687Z,18.56
2018-11-13T10:44:08.786Z,18.57
2018-11-13T10:44:40.891Z,18.65
2018-11-13T10:45:12.998Z,18.63
2018-11-13T10:45:45.096Z,18.66
2018-11-13T10:46:17.164Z,18.74
2018-11-13T10:46:49.225Z,18.65
2018-11-13T10:47:21.347Z,18.78
2018-11-13T10:47:53.426Z,18.79
2018-11-13T10:48:25.758Z,18.82
2018-11-13T10:48:57.884Z,18.78
2018-11-13T10:49:29.907Z,18.89
2018-11-13T10:50:01.992Z,18.86
2018-11-13T10:51:53.545Z,18.94
2018-11-13T10:52:25.956Z,18.99
2018-11-13T10:52:58.056Z,18.99
2018-11-13T10:53:30.168Z,18.96
2018-11-13T10:54:02.272Z,18.97
2018-11-13T10:54:34.379Z,19.05
2018-11-13T10:55:06.458Z,19.07
2018-11-13T10:55:38.518Z,18.99
2018-11-13T10:56:10.600Z,19.06
2018-11-13T10:56:42.699Z,19.09
2018-11-13T10:57:14.773Z,19.13
2018-11-13T10:59:06.525Z,19.07
2018-11-13T10:59:38.630Z,19.09
2018-11-13T11:00:10.876Z,19.15
2018-11-13T11:00:43.213Z,19.17
2018-11-13T11:02:35.334Z,19.19
2018-11-13T11:03:07.649Z,19.15
2018-11-13T11:03:39.698Z,19.12
2018-11-13T11:04:11.594Z,19.1
2018-11-13T11:04:43.639Z,18.99
2018-11-13T11:05:15.736Z,19.09
2018-11-13T11:07:07.479Z,19.15
2018-11-13T11:07:39.561Z,19.07
2018-11-13T11:08:11.744Z,19.09
2018-11-13T11:08:43.836Z,19.15
2018-11-13T11:09:15.922Z,19.12
2018-11-13T11:09:48.044Z,19.05
2018-11-13T11:10:20.112Z,19.07
2018-11-13T11:10:52.186Z,18.99
2018-11-13T11:11:24.332Z,19.02
2018-11-13T11:11:56.378Z,19.07
2018-11-13T11:12:28.471Z,18.91
2018-11-13T11:13:00.635Z,18.99
2018-11-13T11:13:33.035Z,19
2018-11-13T11:14:05.394Z,19.02
2018-11-13T11:14:37.254Z,18.99
2018-11-13T11:15:09.455Z,18.94
2018-11-13T11:15:41.645Z,19.09
2018-11-13T11:16:13.746Z,18.99
2018-11-13T11:18:05.708Z,19.02
2018-11-13T11:18:37.817Z,18.97
2018-11-13T11:19:10.065Z,19.07
2018-11-13T11:19:42.121Z,19.05
2018-11-13T11:21:33.658Z,19.1
2018-11-13T11:22:05.764Z,19.09
2018-11-13T11:22:37.895Z,19.02
2018-11-13T11:23:10.186Z,19.09
2018-11-13T11:23:42.539Z,19.07
2018-11-13T11:25:33.911Z,19.13
2018-11-13T11:26:06.011Z,19.13
2018-11-13T11:27:57.517Z,19.13
2018-11-13T11:28:29.566Z,19.19
2018-11-13T11:29:01.675Z,19.12
2018-11-13T11:29:33.774Z,19.19
2018-11-13T11:30:05.999Z,19.19
2018-11-13T11:30:38.063Z,19.2
2018-11-13T11:32:29.571Z,19.23
2018-11-13T11:33:01.655Z,19.1
2018-11-13T11:33:33.754Z,19.23
2018-11-13T11:34:05.846Z,19.12
2018-11-13T11:34:37.924Z,19.2
2018-11-13T11:35:10.030Z,19.2
2018-11-13T11:37:01.409Z,19.16
2018-11-13T11:38:53.014Z,19.09
2018-11-13T11:39:25.000Z,19.13
2018-11-13T11:39:57.061Z,19.06
2018-11-13T11:40:29.123Z,19.1
2018-11-13T11:41:01.198Z,19.15
2018-11-13T11:41:33.305Z,19.09
2018-11-13T11:42:05.407Z,19.07
2018-11-13T11:42:37.475Z,19.06
2018-11-13T11:43:10.337Z,19
2018-11-13T11:43:42.453Z,19.05
2018-11-13T11:44:14.624Z,18.99
2018-11-13T11:44:46.670Z,18.97
2018-11-13T11:45:18.722Z,18.97
2018-11-13T11:45:50.816Z,18.96
2018-11-13T11:46:22.965Z,18.96
2018-11-13T11:46:55.036Z,18.94
2018-11-13T11:47:27.135Z,18.93
2018-11-13T11:47:59.234Z,18.89
2018-11-13T11:48:31.345Z,18.96
2018-11-13T11:49:03.456Z,18.94
2018-11-13T11:50:55.003Z,18.87
2018-11-13T11:51:27.081Z,18.86
2018-11-13T11:51:59.172Z,18.84
2018-11-13T11:52:31.274Z,18.87
2018-11-13T11:53:03.325Z,18.84
2018-11-13T11:53:35.462Z,18.78
2018-11-13T11:54:07.518Z,18.84
2018-11-13T11:54:39.595Z,18.78
2018-11-13T11:55:11.662Z,18.79
2018-11-13T11:55:43.758Z,18.78
2018-11-13T11:57:35.081Z,18.72
2018-11-13T11:59:26.466Z,18.66
2018-11-13T11:59:58.568Z,18.72
2018-11-13T12:01:50.007Z,18.71
2018-11-13T12:02:22.178Z,18.75
2018-11-13T12:02:54.184Z,18.66
2018-11-13T12:03:26.238Z,18.66
2018-11-13T12:03:58.344Z,18.71
2018-11-13T12:04:30.439Z,18.63
2018-11-13T12:05:02.516Z,18.69
2018-11-13T12:05:34.615Z,18.71
2018-11-13T12:06:06.707Z,18.68
2018-11-13T12:06:38.765Z,18.66
2018-11-13T12:07:10.856Z,18.75
2018-11-13T12:07:42.980Z,18.69
2018-11-13T12:09:34.509Z,18.66
2018-11-13T12:10:06.580Z,18.78
2018-11-13T12:10:38.666Z,18.76
2018-11-13T12:11:10.761Z,18.78
2018-11-13T12:11:42.832Z,18.78
2018-11-13T12:12:14.915Z,18.82
2018-11-13T12:12:46.997Z,18.87
2018-11-13T12:13:19.099Z,18.99
2018-11-13T12:13:51.201Z,18.99
2018-11-13T12:14:23.316Z,19.05
2018-11-13T12:14:55.400Z,19.12
2018-11-13T12:15:27.500Z,19.31
2018-11-13T12:15:59.623Z,19.45
2018-11-13T12:16:31.738Z,19.43
2018-11-13T12:17:03.847Z,19.4
2018-11-13T12:17:35.930Z,19.45
2018-11-13T12:18:08.066Z,19.57
2018-11-13T12:18:40.144Z,19.55
2018-11-13T12:20:31.602Z,19.78
2018-11-13T12:21:03.759Z,19.87
2018-11-13T12:21:35.835Z,19.83
2018-11-13T12:22:07.931Z,19.93
2018-11-13T12:22:40.018Z,20.1
2018-11-13T12:23:12.108Z,20.2
2018-11-13T12:23:44.207Z,20.42
2018-11-13T12:24:16.258Z,20.51
2018-11-13T12:24:48.339Z,20.64
2018-11-13T12:25:20.453Z,20.71
2018-11-13T12:25:52.567Z,20.79
2018-11-13T12:27:44.011Z,20.85
2018-11-13T12:28:16.121Z,20.82
2018-11-13T12:28:48.202Z,20.93
2018-11-13T12:29:20.312Z,21.01
2018-11-13T12:29:52.436Z,21.08
2018-11-13T12:30:24.480Z,21.18
2018-11-13T12:30:56.543Z,21.28
2018-11-13T12:31:28.648Z,21.46
2018-11-13T12:32:00.757Z,21.56
2018-11-13T12:32:32.857Z,21.68
2018-11-13T12:33:04.955Z,21.85
2018-11-13T12:33:37.042Z,21.94
2018-11-13T12:34:09.121Z,22.09
2018-11-13T12:34:41.419Z,22.22
2018-11-13T12:35:13.361Z,22.26
2018-11-13T12:35:45.445Z,22.41
2018-11-13T12:36:17.546Z,22.46
2018-11-13T12:38:09.185Z,22.61
2018-11-13T12:38:41.255Z,22.7
2018-11-13T12:39:13.356Z,22.66
2018-11-13T12:39:45.532Z,22.88
2018-11-13T12:40:17.597Z,22.91
2018-11-13T12:40:50.396Z,23.03
2018-11-13T12:41:22.518Z,23.06
2018-11-13T12:41:54.623Z,23.18
2018-11-13T12:43:46.101Z,23.35
2018-11-13T12:44:18.190Z,23.45
2018-11-13T12:44:50.275Z,23.6
2018-11-13T12:45:22.375Z,23.67
2018-11-13T12:45:54.473Z,23.75
2018-11-13T12:46:26.613Z,23.75
2018-11-13T12:46:58.715Z,23.72
2018-11-13T12:48:50.084Z,23.62
2018-11-13T12:49:22.212Z,23.57
2018-11-13T12:49:54.322Z,23.66
2018-11-13T12:50:26.390Z,23.71
2018-11-13T12:50:58.519Z,23.82
2018-11-13T12:52:50.105Z,23.87
2018-11-13T12:53:22.211Z,23.77
2018-11-13T12:53:54.265Z,23.75
2018-11-13T12:54:26.372Z,23.75
2018-11-13T12:54:58.442Z,23.7
2018-11-13T12:55:30.630Z,23.62
2018-11-13T12:56:02.706Z,23.55
2018-11-13T12:56:34.856Z,23.45
2018-11-13T12:57:06.928Z,23.4
2018-11-13T12:57:39.036Z,23.4
2018-11-13T12:58:11.115Z,23.24
2018-11-13T13:00:02.462Z,23.01
2018-11-13T13:00:34.514Z,23.01
2018-11-13T13:01:07.398Z,23.03
2018-11-13T13:02:59.133Z,22.79
2018-11-13T13:03:31.209Z,22.69
2018-11-13T13:04:03.299Z,22.73
2018-11-13T13:04:35.399Z,22.7
2018-11-13T13:05:07.501Z,22.73
2018-11-13T13:05:39.596Z,22.66
2018-11-13T13:06:11.685Z,22.63
2018-11-13T13:06:43.766Z,22.6
2018-11-13T13:07:15.855Z,22.63
2018-11-13T13:07:47.955Z,22.42
2018-11-13T13:08:20.010Z,22.48
2018-11-13T13:08:52.268Z,22.45
2018-11-13T13:09:24.220Z,22.44
2018-11-13T13:09:56.401Z,22.38
2018-11-13T13:10:30.069Z,22.38
2018-11-13T13:11:02.356Z,22.29
2018-11-13T13:11:34.637Z,22.27
2018-11-13T13:13:26.036Z,22.15
2018-11-13T13:13:58.110Z,22.11
2018-11-13T13:14:30.248Z,22.04
2018-11-13T13:15:02.356Z,22.08
2018-11-13T13:15:34.416Z,21.9
2018-11-13T13:16:06.517Z,21.93
2018-11-13T13:17:57.935Z,21.77
2018-11-13T13:18:30.024Z,21.7
2018-11-13T13:19:02.249Z,21.67
2018-11-13T13:19:34.204Z,21.66
2018-11-13T13:20:06.319Z,21.64
2018-11-13T13:20:38.419Z,21.56
2018-11-13T13:21:10.499Z,21.56
2018-11-13T13:21:42.585Z,21.52
2018-11-13T13:22:14.728Z,21.38
2018-11-13T13:22:46.762Z,21.34
2018-11-13T13:23:18.843Z,21.34
2018-11-13T13:23:50.926Z,21.28
2018-11-13T13:24:23.054Z,21.23
2018-11-13T13:24:55.087Z,21.21
2018-11-13T13:25:27.159Z,21.23
2018-11-13T13:27:18.526Z,21.04
2018-11-13T13:27:50.637Z,21.06
2018-11-13T13:28:22.736Z,21.01
2018-11-13T13:28:54.842Z,21.03
2018-11-13T13:29:26.926Z,21.01
2018-11-13T13:29:59.020Z,20.83
2018-11-13T13:30:31.132Z,20.98
2018-11-13T13:31:03.307Z,21.03
2018-11-13T13:31:35.589Z,21.11
2018-11-13T13:32:07.774Z,21.12
2018-11-13T13:32:39.895Z,21.21
2018-11-13T13:33:12.010Z,21.33
2018-11-13T13:35:03.524Z,21.3
2018-11-13T13:35:35.596Z,21.38
2018-11-13T13:36:07.690Z,21.34
2018-11-13T13:36:39.774Z,21.34
2018-11-13T13:37:11.888Z,21.3
2018-11-13T13:37:44.005Z,21.28
2018-11-13T13:38:16.105Z,21.25
2018-11-13T13:38:48.299Z,21.21
2018-11-13T13:39:20.295Z,21.18
2018-11-13T13:39:52.405Z,21.04
2018-11-13T13:40:24.529Z,21.06
2018-11-13T13:40:56.649Z,21.04
2018-11-13T13:44:07.203Z,21.01
2018-11-13T13:45:58.807Z,21.01
2018-11-13T13:46:30.964Z,21.21
2018-11-13T13:48:22.636Z,21.49
2018-11-13T13:48:54.730Z,21.56
2018-11-13T13:49:26.802Z,21.52
2018-11-13T13:49:58.890Z,21.56
2018-11-13T13:51:50.491Z,21.67
2018-11-13T13:52:22.589Z,21.66
2018-11-13T13:52:54.695Z,21.61
2018-11-13T13:53:26.782Z,21.61
2018-11-13T13:53:58.910Z,21.58
2018-11-13T13:55:50.570Z,21.38
2018-11-13T13:56:22.736Z,21.37
2018-11-13T13:56:54.799Z,21.34
2018-11-13T13:57:26.895Z,21.3
2018-11-13T13:59:18.309Z,21.21
2018-11-13T13:59:50.641Z,21.19
2018-11-13T14:00:22.828Z,21.18
2018-11-13T14:00:54.887Z,21.22
2018-11-13T14:01:26.985Z,21.21
2018-11-13T14:01:59.069Z,21.16
2018-11-13T14:03:50.656Z,21.3
2018-11-13T14:04:22.749Z,21.25
2018-11-13T14:04:54.836Z,21.34
2018-11-13T14:05:26.938Z,21.22
2018-11-13T14:05:59.017Z,21.34
2018-11-13T14:06:31.095Z,21.31
2018-11-13T14:07:03.188Z,21.28
2018-11-13T14:07:35.300Z,21.33
2018-11-13T14:08:07.405Z,21.34
2018-11-13T14:08:39.511Z,21.33
2018-11-13T14:09:11.633Z,21.33
2018-11-13T14:11:02.973Z,21.18
2018-11-13T14:11:35.068Z,21.19
2018-11-13T14:13:26.842Z,21.18
2018-11-13T14:13:59.378Z,21.09
2018-11-13T14:14:31.433Z,21.08
2018-11-13T14:15:03.744Z,20.98
2018-11-13T14:16:55.324Z,21.01
2018-11-13T14:17:27.399Z,20.93
2018-11-13T14:17:59.506Z,20.85
2018-11-13T14:18:33.849Z,20.97
2018-11-13T14:19:08.514Z,20.86
2018-11-13T14:19:40.595Z,20.82
2018-11-13T14:20:12.659Z,20.82
2018-11-13T14:20:44.854Z,20.72
2018-11-13T14:21:16.892Z,20.66
2018-11-13T14:21:49.012Z,20.67
2018-11-13T14:22:21.119Z,20.68
2018-11-13T14:22:53.221Z,20.58
2018-11-13T14:23:25.313Z,20.58
2018-11-13T14:23:57.425Z,20.53
2018-11-13T14:24:29.514Z,20.58
2018-11-13T14:25:01.613Z,20.44
2018-11-13T14:25:33.723Z,20.41
2018-11-13T14:26:05.808Z,20.38
2018-11-13T14:26:37.918Z,20.41
2018-11-13T14:28:29.332Z,20.35
2018-11-13T14:30:21.094Z,20.27
2018-11-13T14:30:53.194Z,20.26
2018-11-13T14:31:25.270Z,20.18
2018-11-13T14:31:57.405Z,20.19
2018-11-13T14:32:29.498Z,20.18
2018-11-13T14:33:01.581Z,20.18
2018-11-13T14:33:34.454Z,20.07
2018-11-13T14:34:06.545Z,20.08
2018-11-13T14:34:38.642Z,20.08
2018-11-13T14:35:10.751Z,20.05
2018-11-13T14:35:42.940Z,20.08
2018-11-13T14:36:14.949Z,19.98
2018-11-13T14:36:47.050Z,20
2018-11-13T14:37:19.125Z,19.95
2018-11-13T14:37:51.164Z,19.9
2018-11-13T14:38:23.219Z,19.93
2018-11-13T14:38:55.286Z,19.87
2018-11-13T14:39:27.380Z,19.9
2018-11-13T14:41:19.960Z,19.83
2018-11-13T14:41:52.022Z,19.78
2018-11-13T14:42:24.135Z,19.7
2018-11-13T14:42:56.216Z,19.74
2018-11-13T14:43:28.301Z,19.68
2018-11-13T14:44:00.379Z,19.67
2018-11-13T14:44:32.483Z,19.65
2018-11-13T14:45:04.550Z,19.67
2018-11-13T14:45:36.637Z,19.65
2018-11-13T14:46:08.725Z,19.61
2018-11-13T14:46:40.945Z,19.65
2018-11-13T14:47:12.868Z,19.53
2018-11-13T14:47:44.972Z,19.5
2018-11-13T14:48:17.043Z,19.5
2018-11-13T14:48:49.134Z,19.47
2018-11-13T14:49:21.211Z,19.5
2018-11-13T14:49:53.307Z,19.5
2018-11-13T14:50:25.369Z,19.47
2018-11-13T14:52:16.770Z,19.43
2018-11-13T14:52:48.866Z,19.42
2018-11-13T14:53:21.003Z,19.42
2018-11-13T14:53:53.046Z,19.42
2018-11-13T14:54:25.129Z,19.32
2018-11-13T14:54:57.219Z,19.34
2018-11-13T14:55:29.274Z,19.32
2018-11-13T14:56:01.373Z,19.34
2018-11-13T14:56:33.493Z,19.27
2018-11-13T14:57:05.541Z,19.24
2018-11-13T14:57:37.649Z,19.15
2018-11-13T14:58:09.718Z,19.23
2018-11-13T14:58:41.739Z,19.17
2018-11-13T14:59:13.857Z,19.15
2018-11-13T14:59:45.963Z,19.15
2018-11-13T15:00:18.057Z,19.09
2018-11-13T15:00:50.153Z,19.12
2018-11-13T15:01:22.332Z,19.07
2018-11-13T15:01:54.377Z,18.99
2018-11-13T15:03:45.848Z,19.05
2018-11-13T15:04:17.935Z,18.96
2018-11-13T15:04:50.033Z,19
2018-11-13T15:06:41.667Z,18.89
2018-11-13T15:08:34.594Z,18.78
2018-11-13T15:09:05.459Z,18.82
2018-11-13T15:09:37.573Z,18.76
2018-11-13T15:10:09.655Z,18.74
2018-11-13T15:10:41.693Z,18.72
2018-11-13T15:11:13.799Z,18.72
2018-11-13T15:11:45.873Z,18.68
2018-11-13T15:12:17.969Z,18.72
2018-11-13T15:12:50.064Z,18.65
2018-11-13T15:13:22.151Z,18.6
2018-11-13T15:13:54.232Z,18.6
2018-11-13T15:14:26.297Z,18.6
2018-11-13T15:14:58.453Z,18.66
2018-11-13T15:15:30.510Z,18.57
2018-11-13T15:16:02.604Z,18.56
2018-11-13T15:16:34.792Z,18.54
2018-11-13T15:17:06.866Z,18.49
2018-11-13T15:17:38.978Z,18.51
2018-11-13T15:19:30.543Z,18.44
2018-11-13T15:20:02.645Z,18.41
2018-11-13T15:20:34.733Z,18.35
2018-11-13T15:21:06.839Z,18.35
2018-11-13T15:21:38.889Z,18.39
2018-11-13T15:22:10.974Z,18.39
2018-11-13T15:22:43.076Z,18.31
2018-11-13T15:23:15.173Z,18.39
2018-11-13T15:25:06.523Z,18.41
2018-11-13T15:25:38.643Z,18.32
2018-11-13T15:26:10.733Z,18.31
2018-11-13T15:26:42.837Z,18.2
2018-11-13T15:27:14.969Z,18.31
2018-11-13T15:27:47.050Z,18.24
2018-11-13T15:28:19.131Z,18.17
2018-11-13T15:30:10.859Z,18.21
2018-11-13T15:32:02.542Z,18.08
2018-11-13T15:32:34.640Z,18.16
2018-11-13T15:33:06.740Z,18.08
2018-11-13T15:33:38.792Z,18.05
2018-11-13T15:34:10.898Z,18.05
2018-11-13T15:34:42.988Z,18.11
2018-11-13T15:35:15.086Z,18.03
2018-11-13T15:35:47.135Z,18.1
2018-11-13T15:36:19.255Z,18.01
2018-11-13T15:36:51.472Z,17.99
2018-11-13T15:38:43.124Z,17.95
2018-11-13T15:39:15.224Z,17.92
2018-11-13T15:39:47.283Z,17.96